North Carver, Massachusetts
Current Conditions -  °F | °C
As of 9:34 PM on Wednesday 22 Oct 2014 (Local Time) from KPYM Reporting Station
Haze Haze  
Wind Chill: 54°   Ceiling: 500
Heat Index: 54°   Visibility: 6mi
Dew Point: 54°   Wind: 18mph
Humidity: 100%   Direction: 50°NE
Pressure: 29.76"   Gusts: 41mph
Location:  41.92°N, 70.8°W
Report Text: KPYM 230134Z AUTO 05016G36KT 6SM BR OVC005 12/12 A2976 RMK AO2 PK WND 06038/0108 LTG DSNT NW RAE34 P0018 T01220122
Loading
Personal Weather Stations






























Interactive Weather Map
Tropical Storm Tracking
New forecast layout! Learn more

10-Day Weather Forecast

Advertisements
Track Severe Weather on mobile